Time,TemperatureF,DewpointF,PressureIn,WindDirection,WindDirectionDegrees,WindSpeedMPH,WindSpeedGustMPH,Humidity,HourlyPrecipIn,Conditions,Clouds,dailyrainin,SoftwareType,DateUTC
2013-02-19 00:05:00,45.3,39.5,29.88,SW,223,5.0,9.0,80,0.00,,,0.00,Wunderground v.1.15,2013-02-19 08:05:00,
2013-02-19 00:10:00,45.3,39.5,29.87,SW,229,2.0,5.0,80,0.00,,,0.00,Wunderground v.1.15,2013-02-19 08:10:00,
2013-02-19 00:15:00,45.3,39.2,29.87,SW,231,3.0,7.0,79,0.00,,,0.00,Wunderground v.1.15,2013-02-19 08:15:00,
2013-02-19 00:20:00,45.3,38.8,29.87,WSW,245,3.0,4.0,78,0.00,,,0.00,Wunderground v.1.15,2013-02-19 08:20:00,
2013-02-19 00:27:00,45.3,37.8,29.87,West,262,5.0,8.0,75,0.00,,,0.00,Wunderground v.1.15,2013-02-19 08:27:00,
2013-02-19 00:32:00,45.4,37.2,29.87,SW,231,4.0,8.0,73,0.00,,,0.00,Wunderground v.1.15,2013-02-19 08:32:00,
2013-02-19 00:37:00,45.6,37.1,29.87,WSW,256,7.0,9.0,72,0.00,,,0.00,Wunderground v.1.15,2013-02-19 08:37:00,
2013-02-19 00:43:00,45.6,36.7,29.87,WSW,257,5.0,8.0,71,0.00,,,0.00,Wunderground v.1.15,2013-02-19 08:43:00,
2013-02-19 00:49:00,45.6,36.7,29.87,SSW,212,5.0,8.0,71,0.00,,,0.00,Wunderground v.1.15,2013-02-19 08:49:00,
2013-02-19 00:54:00,45.6,36.4,29.88,SW,217,6.0,9.0,70,0.00,,,0.00,Wunderground v.1.15,2013-02-19 08:54:00,
2013-02-19 00:59:00,45.6,36.4,29.88,WNW,282,3.0,6.0,70,0.00,,,0.00,Wunderground v.1.15,2013-02-19 08:59:00,
2013-02-19 01:04:00,45.7,36.5,29.88,WSW,240,2.0,10.0,70,0.00,,,0.00,Wunderground v.1.15,2013-02-19 09:04:00,
2013-02-19 01:09:00,45.6,36.4,29.88,West,266,8.0,8.0,70,0.00,,,0.00,Wunderground v.1.15,2013-02-19 09:09:00,
2013-02-19 01:15:00,45.6,36.4,29.88,WSW,237,4.0,8.0,70,0.00,,,0.00,Wunderground v.1.15,2013-02-19 09:15:00,
2013-02-19 01:21:00,45.6,36.4,29.88,WSW,244,3.0,4.0,70,0.00,,,0.00,Wunderground v.1.15,2013-02-19 09:21:00,
2013-02-19 01:26:00,45.6,36.4,29.88,SW,223,2.0,6.0,70,0.00,,,0.00,Wunderground v.1.15,2013-02-19 09:26:00,
2013-02-19 01:31:00,45.6,36.4,29.88,WSW,252,3.0,4.0,70,0.00,,,0.00,Wunderground v.1.15,2013-02-19 09:31:00,
2013-02-19 01:37:00,45.6,36.4,29.88,West,274,2.0,5.0,70,0.00,,,0.00,Wunderground v.1.15,2013-02-19 09:37:00,
2013-02-19 01:43:00,45.6,36.7,29.87,WSW,240,1.0,3.0,71,0.00,,,0.00,Wunderground v.1.15,2013-02-19 09:43:00,
2013-02-19 01:48:00,45.5,36.6,29.87,SSW,195,2.0,3.0,71,0.00,,,0.00,Wunderground v.1.15,2013-02-19 09:48:00,
2013-02-19 01:53:00,45.4,36.5,29.87,SSW,198,1.0,3.0,71,0.00,,,0.00,Wunderground v.1.15,2013-02-19 09:53:00,
2013-02-19 01:58:00,45.4,36.9,29.87,SSW,208,5.0,5.0,72,0.00,,,0.00,Wunderground v.1.15,2013-02-19 09:58:00,
2013-02-19 02:03:00,45.3,36.8,29.87,WSW,245,4.0,5.0,72,0.00,,,0.00,Wunderground v.1.15,2013-02-19 10:03:00,
2013-02-19 02:09:00,45.3,36.8,29.87,SSW,193,5.0,5.0,72,0.00,,,0.00,Wunderground v.1.15,2013-02-19 10:09:00,
2013-02-19 02:14:00,45.3,36.8,29.87,West,268,2.0,9.0,72,0.00,,,0.00,Wunderground v.1.15,2013-02-19 10:14:00,
2013-02-19 02:19:00,45.3,37.2,29.86,SW,236,5.0,9.0,73,0.00,,,0.00,Wunderground v.1.15,2013-02-19 10:19:00,
2013-02-19 02:24:00,45.2,37.1,29.86,SW,223,4.0,6.0,73,0.00,,,0.00,Wunderground v.1.15,2013-02-19 10:24:00,
2013-02-19 02:29:00,45.2,37.4,29.86,SSW,205,2.0,7.0,74,0.00,,,0.00,Wunderground v.1.15,2013-02-19 10:29:00,
2013-02-19 02:34:00,45.1,38.0,29.86,SW,217,5.0,9.0,76,0.00,,,0.00,Wunderground v.1.15,2013-02-19 10:34:00,
2013-02-19 02:39:00,44.9,38.1,29.85,SSW,197,5.0,10.0,77,0.00,,,0.00,Wunderground v.1.15,2013-02-19 10:39:00,
2013-02-19 02:44:00,44.7,38.3,29.85,SSW,203,2.0,7.0,78,0.00,,,0.00,Wunderground v.1.15,2013-02-19 10:44:00,
2013-02-19 02:50:00,44.6,38.8,29.85,SSW,210,3.0,4.0,80,0.00,,,0.00,Wunderground v.1.15,2013-02-19 10:50:00,
2013-02-19 02:55:00,44.5,38.7,29.85,SW,223,2.0,4.0,80,0.00,,,0.00,Wunderground v.1.15,2013-02-19 10:55:00,
2013-02-19 03:00:00,44.4,38.6,29.85,SSW,200,1.0,2.0,80,0.00,,,0.00,Wunderground v.1.15,2013-02-19 11:00:00,
2013-02-19 03:05:00,44.3,38.8,29.85,SSW,200,1.0,5.0,81,0.00,,,0.00,Wunderground v.1.15,2013-02-19 11:05:00,
2013-02-19 03:10:00,44.3,38.8,29.84,SW,220,1.0,5.0,81,0.00,,,0.00,Wunderground v.1.15,2013-02-19 11:10:00,
2013-02-19 03:15:00,44.3,38.8,29.84,SSW,213,4.0,6.0,81,0.00,,,0.00,Wunderground v.1.15,2013-02-19 11:15:00,
2013-02-19 03:20:00,44.4,38.6,29.84,WSW,243,5.0,6.0,80,0.00,,,0.00,Wunderground v.1.15,2013-02-19 11:20:00,
2013-02-19 03:25:00,44.4,38.9,29.84,SW,219,5.0,7.0,81,0.00,,,0.00,Wunderground v.1.15,2013-02-19 11:25:00,
2013-02-19 03:31:00,44.5,39.0,29.84,SW,234,5.0,8.0,81,0.00,,,0.00,Wunderground v.1.15,2013-02-19 11:31:00,
2013-02-19 03:36:00,44.5,39.3,29.84,WSW,244,7.0,14.0,82,0.00,,,0.00,Wunderground v.1.15,2013-02-19 11:36:00,
2013-02-19 03:41:00,44.5,39.3,29.84,WSW,258,4.0,6.0,82,0.00,,,0.00,Wunderground v.1.15,2013-02-19 11:41:00,
2013-02-19 03:46:00,44.5,39.3,29.84,SW,219,3.0,8.0,82,0.00,,,0.00,Wunderground v.1.15,2013-02-19 11:46:00,
2013-02-19 03:51:00,44.4,39.2,29.84,SW,233,5.0,9.0,82,0.00,,,0.00,Wunderground v.1.15,2013-02-19 11:51:00,
2013-02-19 03:56:00,44.3,39.5,29.83,SW,228,2.0,9.0,83,0.00,,,0.00,Wunderground v.1.15,2013-02-19 11:56:00,
2013-02-19 04:01:00,44.0,39.5,29.83,WSW,250,1.0,6.0,84,0.00,,,0.00,Wunderground v.1.15,2013-02-19 12:01:00,
2013-02-19 04:07:00,43.9,39.4,29.83,SSW,195,5.0,6.0,84,0.00,,,0.00,Wunderground v.1.15,2013-02-19 12:07:00,
2013-02-19 04:12:00,43.7,39.5,29.83,SSW,200,6.0,6.0,85,0.00,,,0.00,Wunderground v.1.15,2013-02-19 12:12:00,
2013-02-19 04:17:00,43.7,39.8,29.83,SW,220,1.0,7.0,86,0.00,,,0.00,Wunderground v.1.15,2013-02-19 12:17:00,
2013-02-19 04:22:00,43.6,39.7,29.83,SSW,212,5.0,6.0,86,0.00,,,0.00,Wunderground v.1.15,2013-02-19 12:22:00,
2013-02-19 04:27:00,43.6,39.7,29.83,SW,223,3.0,7.0,86,0.00,,,0.00,Wunderground v.1.15,2013-02-19 12:27:00,
2013-02-19 04:32:00,43.6,39.7,29.83,SW,228,7.0,7.0,86,0.00,,,0.00,Wunderground v.1.15,2013-02-19 12:32:00,
2013-02-19 04:37:00,43.6,39.7,29.83,SW,229,4.0,7.0,86,0.00,,,0.00,Wunderground v.1.15,2013-02-19 12:37:00,
2013-02-19 04:42:00,43.5,39.6,29.83,WSW,252,6.0,6.0,86,0.00,,,0.00,Wunderground v.1.15,2013-02-19 12:42:00,
2013-02-19 04:47:00,43.4,39.5,29.83,SW,220,3.0,7.0,86,0.00,,,0.00,Wunderground v.1.15,2013-02-19 12:47:00,
2013-02-19 04:53:00,43.5,39.6,29.83,SW,220,3.0,10.0,86,0.00,,,0.00,Wunderground v.1.15,2013-02-19 12:53:00,
2013-02-19 04:58:00,43.6,39.7,29.83,SSW,210,3.0,10.0,86,0.00,,,0.00,Wunderground v.1.15,2013-02-19 12:58:00,
2013-02-19 05:03:00,43.7,39.8,29.83,SSW,199,7.0,9.0,86,0.00,,,0.00,Wunderground v.1.15,2013-02-19 13:03:00,
2013-02-19 05:08:00,43.6,39.7,29.83,SSW,210,3.0,9.0,86,0.00,,,0.00,Wunderground v.1.15,2013-02-19 13:08:00,
2013-02-19 05:13:00,43.6,40.0,29.83,SSW,207,2.0,4.0,87,0.00,,,0.00,Wunderground v.1.15,2013-02-19 13:13:00,
2013-02-19 05:18:00,43.6,40.0,29.83,SW,220,1.0,5.0,87,0.00,,,0.00,Wunderground v.1.15,2013-02-19 13:18:00,
2013-02-19 05:23:00,43.5,39.9,29.83,SSW,196,3.0,6.0,87,0.00,,,0.00,Wunderground v.1.15,2013-02-19 13:23:00,
2013-02-19 05:28:00,43.5,39.9,29.82,SSW,203,5.0,8.0,87,0.00,,,0.00,Wunderground v.1.15,2013-02-19 13:28:00,
2013-02-19 05:33:00,43.4,40.1,29.82,WSW,247,7.0,9.0,88,0.00,,,0.00,Wunderground v.1.15,2013-02-19 13:33:00,
2013-02-19 05:38:00,43.3,40.0,29.82,SSE,167,1.0,9.0,88,0.00,,,0.00,Wunderground v.1.15,2013-02-19 13:38:00,
2013-02-19 05:43:00,43.2,39.9,29.82,South,184,5.0,8.0,88,0.00,,,0.00,Wunderground v.1.15,2013-02-19 13:43:00,
2013-02-19 05:48:00,43.3,40.0,29.82,SSE,165,4.0,8.0,88,0.00,,,0.00,Wunderground v.1.15,2013-02-19 13:48:00,
2013-02-19 05:53:00,43.3,40.0,29.81,SW,214,2.0,5.0,88,0.00,,,0.00,Wunderground v.1.15,2013-02-19 13:53:00,
2013-02-19 05:58:00,43.5,39.9,29.81,SSW,210,2.0,8.0,87,0.00,,,0.00,Wunderground v.1.15,2013-02-19 13:58:00,
2013-02-19 06:04:00,43.7,39.5,29.81,SSW,203,4.0,8.0,85,0.00,,,0.00,Wunderground v.1.15,2013-02-19 14:04:00,
2013-02-19 06:09:00,43.9,39.4,29.81,SSW,210,3.0,8.0,84,0.00,,,0.00,Wunderground v.1.15,2013-02-19 14:09:00,
2013-02-19 06:14:00,44.0,39.2,29.81,South,172,3.0,7.0,83,0.00,,,0.00,Wunderground v.1.15,2013-02-19 14:14:00,
2013-02-19 06:19:00,44.1,39.0,29.81,SSW,203,2.0,9.0,82,0.00,,,0.00,Wunderground v.1.15,2013-02-19 14:19:00,
2013-02-19 06:24:00,44.2,39.1,29.80,WSW,239,0.0,6.0,82,0.00,,,0.00,Wunderground v.1.15,2013-02-19 14:24:00,
2013-02-19 06:29:00,44.2,38.7,29.80,South,184,6.0,6.0,81,0.00,,,0.00,Wunderground v.1.15,2013-02-19 14:29:00,
2013-02-19 06:35:00,44.3,38.8,29.80,SSE,153,3.0,6.0,81,0.00,,,0.00,Wunderground v.1.15,2013-02-19 14:35:00,
2013-02-19 06:40:00,44.3,38.8,29.79,SSE,163,2.0,3.0,81,0.00,,,0.00,Wunderground v.1.15,2013-02-19 14:40:00,
2013-02-19 06:45:00,44.3,38.5,29.79,SSW,197,0.0,4.0,80,0.00,,,0.00,Wunderground v.1.15,2013-02-19 14:45:00,
2013-02-19 06:50:00,44.3,38.8,29.79,South,188,2.0,4.0,81,0.00,,,0.00,Wunderground v.1.15,2013-02-19 14:50:00,
2013-02-19 06:55:00,44.3,38.8,29.79,South,190,3.0,6.0,81,0.00,,,0.00,Wunderground v.1.15,2013-02-19 14:55:00,
2013-02-19 07:00:00,44.5,38.7,29.79,SSW,207,6.0,6.0,80,0.00,,,0.00,Wunderground v.1.15,2013-02-19 15:00:00,
2013-02-19 07:05:00,44.6,38.8,29.79,SSW,210,4.0,6.0,80,0.00,,,0.00,Wunderground v.1.15,2013-02-19 15:05:00,
2013-02-19 07:10:00,44.8,39.0,29.79,South,186,5.0,5.0,80,0.00,,,0.00,Wunderground v.1.15,2013-02-19 15:10:00,
2013-02-19 07:15:00,44.9,38.8,29.78,South,172,5.0,7.0,79,0.00,,,0.00,Wunderground v.1.15,2013-02-19 15:15:00,
2013-02-19 07:20:00,45.1,39.0,29.79,SSW,196,2.0,5.0,79,0.00,,,0.00,Wunderground v.1.15,2013-02-19 15:20:00,
2013-02-19 07:26:00,45.2,38.7,29.78,SSW,213,6.0,7.0,78,0.00,,,0.00,Wunderground v.1.15,2013-02-19 15:26:00,
2013-02-19 07:31:00,45.3,38.8,29.79,SW,219,2.0,5.0,78,0.00,,,0.00,Wunderground v.1.15,2013-02-19 15:31:00,
2013-02-19 07:36:00,45.3,38.8,29.79,SW,234,2.0,6.0,78,0.00,,,0.00,Wunderground v.1.15,2013-02-19 15:36:00,
2013-02-19 07:41:00,45.4,38.9,29.79,WSW,254,2.0,3.0,78,0.00,,,0.00,Wunderground v.1.15,2013-02-19 15:41:00,
2013-02-19 07:46:00,45.4,39.3,29.79,SW,220,3.0,5.0,79,0.00,,,0.00,Wunderground v.1.15,2013-02-19 15:46:00,
2013-02-19 07:51:00,45.4,39.9,29.79,SSW,206,3.0,6.0,81,0.00,,,0.00,Wunderground v.1.15,2013-02-19 15:51:00,
2013-02-19 07:56:00,45.3,39.8,29.78,WSW,255,3.0,11.0,81,0.00,,,0.00,Wunderground v.1.15,2013-02-19 15:56:00,
2013-02-19 08:01:00,45.3,39.8,29.78,WSW,241,4.0,8.0,81,0.00,,,0.00,Wunderground v.1.15,2013-02-19 16:01:00,
2013-02-19 08:06:00,45.3,40.1,29.78,WSW,252,4.0,8.0,82,0.00,,,0.00,Wunderground v.1.15,2013-02-19 16:06:00,
2013-02-19 08:11:00,45.4,39.9,29.78,South,186,6.0,6.0,81,0.00,,,0.00,Wunderground v.1.15,2013-02-19 16:11:00,
2013-02-19 08:16:00,45.6,39.5,29.78,WSW,252,6.0,11.0,79,0.00,,,0.00,Wunderground v.1.15,2013-02-19 16:16:00,
2013-02-19 08:21:00,45.7,39.9,29.78,SSW,210,3.0,8.0,80,0.00,,,0.00,Wunderground v.1.15,2013-02-19 16:21:00,
2013-02-19 08:27:00,45.8,40.0,29.77,South,169,9.0,10.0,80,0.00,,,0.00,Wunderground v.1.15,2013-02-19 16:27:00,
2013-02-19 08:32:00,45.7,39.9,29.77,West,262,2.0,7.0,80,0.00,,,0.00,Wunderground v.1.15,2013-02-19 16:32:00,
2013-02-19 08:37:00,45.7,39.9,29.76,SW,224,4.0,7.0,80,0.00,,,0.00,Wunderground v.1.15,2013-02-19 16:37:00,
2013-02-19 08:42:00,45.9,39.8,29.76,SSW,192,4.0,8.0,79,0.00,,,0.00,Wunderground v.1.15,2013-02-19 16:42:00,
2013-02-19 08:47:00,46.3,39.8,29.76,WSW,250,6.0,9.0,78,0.00,,,0.00,Wunderground v.1.15,2013-02-19 16:47:00,
2013-02-19 08:52:00,46.7,39.9,29.76,SSW,199,2.0,7.0,77,0.00,,,0.00,Wunderground v.1.15,2013-02-19 16:52:00,
2013-02-19 08:58:00,47.1,39.9,29.76,SW,232,4.0,10.0,76,0.00,,,0.00,Wunderground v.1.15,2013-02-19 16:58:00,
2013-02-19 09:03:00,47.5,40.0,29.76,South,178,5.0,9.0,75,0.00,,,0.00,Wunderground v.1.15,2013-02-19 17:03:00,
2013-02-19 09:08:00,47.6,39.7,29.76,SW,217,7.0,15.0,74,0.00,,,0.00,Wunderground v.1.15,2013-02-19 17:08:00,
2013-02-19 09:13:00,47.7,39.8,29.75,SSW,208,4.0,12.0,74,0.00,,,0.00,Wunderground v.1.15,2013-02-19 17:13:00,
2013-02-19 09:18:00,47.7,39.8,29.75,South,184,5.0,12.0,74,0.00,,,0.00,Wunderground v.1.15,2013-02-19 17:18:00,
2013-02-19 09:23:00,47.8,39.9,29.74,SSW,192,6.0,10.0,74,0.00,,,0.00,Wunderground v.1.15,2013-02-19 17:23:00,
2013-02-19 09:28:00,48.1,40.2,29.74,South,175,5.0,10.0,74,0.00,,,0.00,Wunderground v.1.15,2013-02-19 17:28:00,
2013-02-19 09:33:00,48.3,40.0,29.74,SW,231,9.0,10.0,73,0.00,,,0.00,Wunderground v.1.15,2013-02-19 17:33:00,
2013-02-19 09:39:00,48.7,39.7,29.74,South,184,9.0,12.0,71,0.00,,,0.00,Wunderground v.1.15,2013-02-19 17:39:00,
2013-02-19 09:44:00,48.8,39.8,29.74,South,171,6.0,15.0,71,0.00,,,0.00,Wunderground v.1.15,2013-02-19 17:44:00,
2013-02-19 09:49:00,48.8,40.2,29.73,SSW,198,3.0,15.0,72,0.00,,,0.00,Wunderground v.1.15,2013-02-19 17:49:00,
2013-02-19 09:54:00,48.9,40.3,29.73,SW,224,14.0,14.0,72,0.00,,,0.00,Wunderground v.1.15,2013-02-19 17:54:00,
2013-02-19 10:00:00,48.9,40.3,29.73,SSW,212,9.0,9.0,72,0.00,,,0.00,Wunderground v.1.15,2013-02-19 18:00:00,
2013-02-19 10:05:00,48.8,39.8,29.73,South,188,5.0,11.0,71,0.00,,,0.00,Wunderground v.1.15,2013-02-19 18:05:00,
2013-02-19 10:10:00,48.8,39.4,29.72,SSW,205,6.0,11.0,70,0.00,,,0.00,Wunderground v.1.15,2013-02-19 18:10:00,
2013-02-19 10:15:00,49.0,39.6,29.72,South,181,6.0,14.0,70,0.00,,,0.00,Wunderground v.1.15,2013-02-19 18:15:00,
2013-02-19 10:20:00,49.0,39.3,29.72,SW,223,10.0,11.0,69,0.00,,,0.00,Wunderground v.1.15,2013-02-19 18:20:00,
2013-02-19 10:26:00,48.9,39.5,29.72,WSW,241,8.0,11.0,70,0.00,,,0.00,Wunderground v.1.15,2013-02-19 18:26:00,
2013-02-19 10:31:00,48.9,39.9,29.72,South,175,10.0,11.0,71,0.00,,,0.00,Wunderground v.1.15,2013-02-19 18:31:00,
2013-02-19 10:36:00,48.7,40.8,29.72,South,178,8.0,16.0,74,0.00,,,0.00,Wunderground v.1.15,2013-02-19 18:36:00,
2013-02-19 10:41:00,48.6,40.0,29.71,SW,223,6.0,12.0,72,0.00,,,0.00,Wunderground v.1.15,2013-02-19 18:41:00,
2013-02-19 10:46:00,48.8,40.2,29.72,SW,216,11.0,15.0,72,0.00,,,0.00,Wunderground v.1.15,2013-02-19 18:46:00,
2013-02-19 10:51:00,48.7,41.1,29.72,WSW,248,12.0,12.0,75,0.00,,,0.00,Wunderground v.1.15,2013-02-19 18:51:00,
2013-02-19 10:56:00,47.5,40.6,29.74,West,269,9.0,17.0,77,0.00,,,0.01,Wunderground v.1.15,2013-02-19 18:56:00,
2013-02-19 11:01:00,44.0,39.2,29.74,WSW,243,4.0,10.0,83,0.35,,,0.04,Wunderground v.1.15,2013-02-19 19:01:00,
2013-02-19 11:07:00,42.4,38.8,29.74,West,261,3.0,16.0,87,0.14,,,0.05,Wunderground v.1.15,2013-02-19 19:07:00,
2013-02-19 11:12:00,42.0,39.3,29.75,WSW,254,8.0,10.0,90,0.33,,,0.08,Wunderground v.1.15,2013-02-19 19:12:00,
2013-02-19 11:17:00,41.6,39.2,29.75,WSW,250,5.0,10.0,91,0.32,,,0.10,Wunderground v.1.15,2013-02-19 19:17:00,
2013-02-19 11:22:00,41.6,39.4,29.75,SSW,207,5.0,8.0,92,0.40,,,0.14,Wunderground v.1.15,2013-02-19 19:22:00,
2013-02-19 11:27:00,41.5,39.3,29.74,SSW,212,3.0,8.0,92,0.42,,,0.17,Wunderground v.1.15,2013-02-19 19:27:00,
2013-02-19 11:32:00,41.4,39.3,29.74,SW,223,5.0,7.0,92,0.39,,,0.21,Wunderground v.1.15,2013-02-19 19:32:00,
2013-02-19 11:37:00,41.3,39.2,29.74,SSW,210,3.0,8.0,92,0.27,,,0.23,Wunderground v.1.15,2013-02-19 19:37:00,
2013-02-19 11:43:00,41.4,39.3,29.74,SW,226,2.0,4.0,92,0.31,,,0.26,Wunderground v.1.15,2013-02-19 19:43:00,
2013-02-19 11:48:00,41.2,38.8,29.73,SSW,210,2.0,4.0,91,0.19,,,0.27,Wunderground v.1.15,2013-02-19 19:48:00,
2013-02-19 11:53:00,41.3,39.2,29.73,South,189,1.0,4.0,92,0.22,,,0.29,Wunderground v.1.15,2013-02-19 19:53:00,
2013-02-19 11:58:00,41.3,38.9,29.73,South,171,1.0,5.0,91,0.12,,,0.30,Wunderground v.1.15,2013-02-19 19:58:00,
2013-02-19 12:03:00,41.4,39.3,29.73,South,172,3.0,4.0,92,0.07,,,0.30,Wunderground v.1.15,2013-02-19 20:03:00,
2013-02-19 12:08:00,41.3,39.2,29.73,South,174,1.0,4.0,92,0.15,,,0.32,Wunderground v.1.15,2013-02-19 20:08:00,
2013-02-19 12:13:00,41.4,39.3,29.73,SW,219,0.0,2.0,92,0.14,,,0.33,Wunderground v.1.15,2013-02-19 20:13:00,
2013-02-19 12:18:00,41.4,39.3,29.73,SSW,210,3.0,3.0,92,0.10,,,0.33,Wunderground v.1.15,2013-02-19 20:18:00,
2013-02-19 12:23:00,41.4,39.3,29.73,WSW,241,1.0,3.0,92,0.08,,,0.34,Wunderground v.1.15,2013-02-19 20:23:00,
2013-02-19 12:29:00,41.5,39.3,29.72,WSW,251,2.0,3.0,92,0.08,,,0.35,Wunderground v.1.15,2013-02-19 20:29:00,
2013-02-19 12:34:00,41.6,39.4,29.72,SW,236,1.0,3.0,92,0.08,,,0.35,Wunderground v.1.15,2013-02-19 20:34:00,
2013-02-19 12:39:00,41.9,40.0,29.71,SSW,199,1.0,3.0,93,0.06,,,0.35,Wunderground v.1.15,2013-02-19 20:39:00,
2013-02-19 12:44:00,42.3,40.4,29.71,SSE,159,2.0,2.0,93,0.04,,,0.35,Wunderground v.1.15,2013-02-19 20:44:00,
2013-02-19 12:49:00,42.3,40.1,29.71,SW,233,1.0,3.0,92,0.04,,,0.36,Wunderground v.1.15,2013-02-19 20:49:00,
2013-02-19 12:54:00,42.5,40.3,29.71,SW,223,2.0,5.0,92,0.04,,,0.36,Wunderground v.1.15,2013-02-19 20:54:00,
2013-02-19 12:59:00,42.6,40.4,29.70,SW,236,1.0,5.0,92,0.04,,,0.36,Wunderground v.1.15,2013-02-19 20:59:00,
2013-02-19 13:04:00,42.7,40.3,29.70,SSW,200,2.0,5.0,91,0.00,,,0.36,Wunderground v.1.15,2013-02-19 21:04:00,
2013-02-19 13:09:00,42.5,40.1,29.70,SW,226,3.0,3.0,91,0.00,,,0.36,Wunderground v.1.15,2013-02-19 21:09:00,
2013-02-19 13:14:00,42.8,40.4,29.70,West,276,2.0,4.0,91,0.00,,,0.36,Wunderground v.1.15,2013-02-19 21:14:00,
2013-02-19 13:19:00,42.5,40.1,29.71,WSW,243,2.0,3.0,91,0.00,,,0.36,Wunderground v.1.15,2013-02-19 21:19:00,
2013-02-19 13:24:00,42.1,39.7,29.72,WNW,290,7.0,16.0,91,0.00,,,0.37,Wunderground v.1.15,2013-02-19 21:24:00,
2013-02-19 13:30:00,39.5,36.0,29.72,West,278,1.0,5.0,87,0.26,,,0.39,Wunderground v.1.15,2013-02-19 21:30:00,
2013-02-19 13:35:00,38.2,35.2,29.72,West,267,5.0,7.0,89,0.15,,,0.40,Wunderground v.1.15,2013-02-19 21:35:00,
2013-02-19 13:40:00,37.7,35.3,29.72,West,259,2.0,3.0,91,0.14,,,0.41,Wunderground v.1.15,2013-02-19 21:40:00,
2013-02-19 13:45:00,37.7,35.6,29.72,WSW,240,4.0,7.0,92,0.13,,,0.42,Wunderground v.1.15,2013-02-19 21:45:00,
2013-02-19 13:50:00,37.9,35.8,29.72,SW,224,3.0,3.0,92,0.13,,,0.43,Wunderground v.1.15,2013-02-19 21:50:00,
2013-02-19 13:55:00,38.1,36.0,29.71,West,281,3.0,5.0,92,0.06,,,0.43,Wunderground v.1.15,2013-02-19 21:55:00,
2013-02-19 14:00:00,38.5,36.7,29.71,WSW,247,3.0,3.0,93,0.06,,,0.44,Wunderground v.1.15,2013-02-19 22:00:00,
2013-02-19 14:05:00,38.8,36.9,29.71,SSW,196,2.0,4.0,93,0.06,,,0.44,Wunderground v.1.15,2013-02-19 22:05:00,
2013-02-19 14:10:00,39.2,37.3,29.70,SW,223,1.0,3.0,93,0.04,,,0.44,Wunderground v.1.15,2013-02-19 22:10:00,
2013-02-19 14:15:00,39.5,37.6,29.70,SW,220,3.0,4.0,93,0.00,,,0.44,Wunderground v.1.15,2013-02-19 22:15:00,
2013-02-19 14:20:00,39.8,37.7,29.70,South,176,3.0,6.0,92,0.00,,,0.44,Wunderground v.1.15,2013-02-19 22:20:00,
2013-02-19 14:25:00,40.1,38.0,29.69,SSW,199,4.0,7.0,92,0.00,,,0.44,Wunderground v.1.15,2013-02-19 22:25:00,
2013-02-19 14:31:00,40.3,38.2,29.69,SSW,210,2.0,4.0,92,0.00,,,0.44,Wunderground v.1.15,2013-02-19 22:31:00,
2013-02-19 14:36:00,40.9,38.5,29.69,South,178,4.0,7.0,91,0.00,,,0.44,Wunderground v.1.15,2013-02-19 22:36:00,
2013-02-19 14:41:00,41.9,39.7,29.68,South,177,3.0,5.0,92,0.00,,,0.44,Wunderground v.1.15,2013-02-19 22:41:00,
2013-02-19 14:46:00,42.6,39.9,29.68,South,174,3.0,6.0,90,0.00,,,0.44,Wunderground v.1.15,2013-02-19 22:46:00,
2013-02-19 14:51:00,43.5,40.5,29.68,SSW,212,4.0,6.0,89,0.00,,,0.44,Wunderground v.1.15,2013-02-19 22:51:00,
2013-02-19 14:56:00,43.5,39.6,29.68,SW,221,5.0,9.0,86,0.00,,,0.44,Wunderground v.1.15,2013-02-19 22:56:00,
2013-02-19 15:01:00,43.5,38.7,29.68,WSW,239,3.0,5.0,83,0.00,,,0.44,Wunderground v.1.15,2013-02-19 23:01:00,
2013-02-19 15:06:00,44.0,39.5,29.68,SW,216,7.0,8.0,84,0.00,,,0.44,Wunderground v.1.15,2013-02-19 23:06:00,
2013-02-19 15:11:00,44.3,39.2,29.67,WSW,241,5.0,6.0,82,0.00,,,0.44,Wunderground v.1.15,2013-02-19 23:11:00,
2013-02-19 15:16:00,44.1,38.6,29.67,SW,231,6.0,9.0,81,0.00,,,0.44,Wunderground v.1.15,2013-02-19 23:16:00,
2013-02-19 15:22:00,43.9,38.8,29.67,SW,234,3.0,7.0,82,0.00,,,0.44,Wunderground v.1.15,2013-02-19 23:22:00,
2013-02-19 15:27:00,43.5,38.7,29.67,SSW,210,7.0,10.0,83,0.00,,,0.44,Wunderground v.1.15,2013-02-19 23:27:00,
2013-02-19 15:32:00,43.9,38.8,29.67,SSW,205,5.0,9.0,82,0.00,,,0.44,Wunderground v.1.15,2013-02-19 23:32:00,
2013-02-19 15:37:00,44.3,38.8,29.67,SW,224,5.0,10.0,81,0.00,,,0.44,Wunderground v.1.15,2013-02-19 23:37:00,
2013-02-19 15:42:00,44.7,39.5,29.67,SSW,200,2.0,6.0,82,0.00,,,0.44,Wunderground v.1.15,2013-02-19 23:42:00,
2013-02-19 15:47:00,44.7,38.6,29.67,SSE,150,3.0,10.0,79,0.00,,,0.44,Wunderground v.1.15,2013-02-19 23:47:00,
2013-02-19 15:52:00,45.0,39.2,29.66,SSW,212,6.0,9.0,80,0.00,,,0.44,Wunderground v.1.15,2013-02-19 23:52:00,
2013-02-19 15:58:00,45.3,39.2,29.66,SSW,212,3.0,9.0,79,0.00,,,0.44,Wunderground v.1.15,2013-02-19 23:58:00,
2013-02-19 16:03:00,45.1,38.3,29.66,SSW,210,4.0,12.0,77,0.00,,,0.44,Wunderground v.1.15,2013-02-20 00:03:00,
2013-02-19 16:08:00,44.7,38.6,29.66,South,169,7.0,12.0,79,0.00,,,0.44,Wunderground v.1.15,2013-02-20 00:08:00,
2013-02-19 16:13:00,44.5,38.1,29.66,West,278,3.0,7.0,78,0.00,,,0.44,Wunderground v.1.15,2013-02-20 00:13:00,
2013-02-19 16:18:00,43.4,36.7,29.66,NW,309,0.0,8.0,77,0.00,,,0.44,Wunderground v.1.15,2013-02-20 00:18:00,
2013-02-19 16:23:00,42.4,37.0,29.66,WSW,251,0.0,6.0,81,0.00,,,0.44,Wunderground v.1.15,2013-02-20 00:23:00,
2013-02-19 16:28:00,42.4,37.9,29.66,West,269,0.0,6.0,84,0.00,,,0.45,Wunderground v.1.15,2013-02-20 00:28:00,
2013-02-19 16:33:00,42.7,38.5,29.66,West,270,0.0,6.0,85,0.00,,,0.45,Wunderground v.1.15,2013-02-20 00:33:00,
2013-02-19 16:38:00,43.3,38.8,29.66,WSW,258,1.0,6.0,84,0.00,,,0.45,Wunderground v.1.15,2013-02-20 00:38:00,
2013-02-19 16:43:00,43.7,38.9,29.65,West,276,2.0,4.0,83,0.00,,,0.45,Wunderground v.1.15,2013-02-20 00:43:00,
2013-02-19 16:48:00,44.2,38.1,29.65,WSW,250,3.0,11.0,79,0.00,,,0.45,Wunderground v.1.15,2013-02-20 00:48:00,
2013-02-19 16:54:00,44.3,36.5,29.65,WSW,252,4.0,12.0,74,0.00,,,0.45,Wunderground v.1.15,2013-02-20 00:54:00,
2013-02-19 16:59:00,44.0,36.2,29.65,West,278,6.0,12.0,74,0.00,,,0.45,Wunderground v.1.15,2013-02-20 00:59:00,
2013-02-19 17:04:00,43.7,36.6,29.65,WSW,256,2.0,6.0,76,0.00,,,0.45,Wunderground v.1.15,2013-02-20 01:04:00,
2013-02-19 17:09:00,43.5,36.8,29.65,SW,233,3.0,6.0,77,0.00,,,0.45,Wunderground v.1.15,2013-02-20 01:09:00,
2013-02-19 17:14:00,43.4,35.7,29.65,WNW,295,4.0,7.0,74,0.00,,,0.45,Wunderground v.1.15,2013-02-20 01:14:00,
2013-02-19 17:19:00,43.3,35.6,29.65,West,268,4.0,10.0,74,0.00,,,0.45,Wunderground v.1.15,2013-02-20 01:19:00,
2013-02-19 17:24:00,43.2,35.1,29.65,WSW,243,4.0,7.0,73,0.00,,,0.45,Wunderground v.1.15,2013-02-20 01:24:00,
2013-02-19 17:29:00,43.2,35.1,29.65,WSW,241,5.0,5.0,73,0.00,,,0.45,Wunderground v.1.15,2013-02-20 01:29:00,
2013-02-19 17:35:00,43.2,34.4,29.65,West,274,3.0,7.0,71,0.00,,,0.45,Wunderground v.1.15,2013-02-20 01:35:00,
2013-02-19 17:40:00,43.1,33.6,29.65,SW,234,7.0,7.0,69,0.00,,,0.45,Wunderground v.1.15,2013-02-20 01:40:00,
2013-02-19 17:45:00,43.0,33.9,29.65,WNW,285,2.0,12.0,70,0.00,,,0.45,Wunderground v.1.15,2013-02-20 01:45:00,
2013-02-19 17:50:00,42.8,34.0,29.66,West,266,1.0,4.0,71,0.00,,,0.45,Wunderground v.1.15,2013-02-20 01:50:00,
2013-02-19 17:55:00,42.5,34.1,29.66,West,270,2.0,5.0,72,0.00,,,0.45,Wunderground v.1.15,2013-02-20 01:55:00,
2013-02-19 18:00:00,42.4,34.0,29.66,WSW,247,4.0,7.0,72,0.00,,,0.45,Wunderground v.1.15,2013-02-20 02:00:00,
2013-02-19 18:05:00,42.2,34.2,29.66,West,279,1.0,7.0,73,0.00,,,0.45,Wunderground v.1.15,2013-02-20 02:05:00,
2013-02-19 18:11:00,41.9,34.2,29.66,West,267,1.0,2.0,74,0.00,,,0.45,Wunderground v.1.15,2013-02-20 02:11:00,
2013-02-19 18:16:00,41.7,34.4,29.66,WSW,254,4.0,4.0,75,0.00,,,0.45,Wunderground v.1.15,2013-02-20 02:16:00,
2013-02-19 18:21:00,41.7,34.4,29.66,WSW,258,1.0,2.0,75,0.00,,,0.45,Wunderground v.1.15,2013-02-20 02:21:00,
2013-02-19 18:26:00,41.6,34.3,29.66,SW,234,1.0,4.0,75,0.00,,,0.45,Wunderground v.1.15,2013-02-20 02:26:00,
2013-02-19 18:31:00,41.4,34.4,29.66,SW,234,0.0,1.0,76,0.00,,,0.45,Wunderground v.1.15,2013-02-20 02:31:00,
2013-02-19 18:36:00,41.1,34.4,29.66,SW,231,0.0,1.0,77,0.00,,,0.45,Wunderground v.1.15,2013-02-20 02:36:00,
2013-02-19 18:41:00,40.7,34.4,29.67,SW,231,0.0,0.0,78,0.00,,,0.45,Wunderground v.1.15,2013-02-20 02:41:00,
2013-02-19 18:46:00,40.4,34.1,29.67,SW,231,0.0,0.0,78,0.00,,,0.45,Wunderground v.1.15,2013-02-20 02:46:00,
2013-02-19 18:51:00,40.0,34.3,29.67,SW,231,0.0,0.0,80,0.00,,,0.45,Wunderground v.1.15,2013-02-20 02:51:00,
2013-02-19 18:56:00,39.7,34.3,29.67,SW,231,0.0,0.0,81,0.00,,,0.45,Wunderground v.1.15,2013-02-20 02:56:00,
2013-02-19 19:01:00,39.2,34.2,29.67,SW,231,0.0,0.0,82,0.00,,,0.45,Wunderground v.1.15,2013-02-20 03:01:00,
2013-02-19 19:06:00,38.8,34.1,29.67,SW,231,0.0,0.0,83,0.00,,,0.45,Wunderground v.1.15,2013-02-20 03:06:00,
2013-02-19 19:11:00,38.5,34.1,29.67,SW,231,0.0,0.0,84,0.00,,,0.45,Wunderground v.1.15,2013-02-20 03:11:00,
2013-02-19 19:17:00,38.2,33.8,29.67,SW,231,0.0,0.0,84,0.00,,,0.45,Wunderground v.1.15,2013-02-20 03:17:00,
2013-02-19 19:22:00,37.9,33.8,29.67,SW,231,0.0,0.0,85,0.00,,,0.45,Wunderground v.1.15,2013-02-20 03:22:00,
2013-02-19 19:27:00,37.5,34.0,29.67,SW,231,0.0,0.0,87,0.00,,,0.45,Wunderground v.1.15,2013-02-20 03:27:00,
2013-02-19 19:32:00,37.7,34.5,29.67,West,260,0.0,2.0,88,0.00,,,0.45,Wunderground v.1.15,2013-02-20 03:32:00,
2013-02-19 19:37:00,38.3,34.8,29.67,WSW,258,2.0,3.0,87,0.00,,,0.45,Wunderground v.1.15,2013-02-20 03:37:00,
2013-02-19 19:42:00,38.8,35.0,29.67,West,263,0.0,2.0,86,0.00,,,0.45,Wunderground v.1.15,2013-02-20 03:42:00,
2013-02-19 19:48:00,39.0,34.9,29.67,WSW,247,2.0,2.0,85,0.00,,,0.45,Wunderground v.1.15,2013-02-20 03:48:00,
2013-02-19 19:53:00,39.2,34.8,29.67,WSW,244,2.0,4.0,84,0.00,,,0.45,Wunderground v.1.15,2013-02-20 03:53:00,
2013-02-19 19:58:00,39.5,34.8,29.67,WSW,247,0.0,5.0,83,0.00,,,0.45,Wunderground v.1.15,2013-02-20 03:58:00,
2013-02-19 20:03:00,39.5,34.8,29.67,WSW,238,2.0,3.0,83,0.00,,,0.45,Wunderground v.1.15,2013-02-20 04:03:00,
2013-02-19 20:08:00,39.6,34.6,29.67,WSW,240,2.0,3.0,82,0.00,,,0.45,Wunderground v.1.15,2013-02-20 04:08:00,
2013-02-19 20:13:00,39.6,34.6,29.68,SW,224,0.0,4.0,82,0.00,,,0.45,Wunderground v.1.15,2013-02-20 04:13:00,
2013-02-19 20:18:00,39.4,34.4,29.68,WSW,244,0.0,4.0,82,0.00,,,0.45,Wunderground v.1.15,2013-02-20 04:18:00,
2013-02-19 20:23:00,39.3,34.3,29.68,SSW,209,0.0,3.0,82,0.00,,,0.45,Wunderground v.1.15,2013-02-20 04:23:00,
2013-02-19 20:28:00,39.2,34.2,29.68,SW,221,0.0,3.0,82,0.00,,,0.45,Wunderground v.1.15,2013-02-20 04:28:00,
2013-02-19 20:34:00,39.2,34.5,29.68,SSW,203,1.0,3.0,83,0.00,,,0.45,Wunderground v.1.15,2013-02-20 04:34:00,
2013-02-19 20:39:00,39.2,34.5,29.69,SSW,206,2.0,4.0,83,0.00,,,0.45,Wunderground v.1.15,2013-02-20 04:39:00,
2013-02-19 20:44:00,39.3,34.6,29.69,SSW,213,1.0,3.0,83,0.00,,,0.45,Wunderground v.1.15,2013-02-20 04:44:00,
2013-02-19 20:49:00,39.2,34.5,29.69,SSW,205,0.0,3.0,83,0.00,,,0.45,Wunderground v.1.15,2013-02-20 04:49:00,
2013-02-19 20:54:00,39.1,34.4,29.69,SW,234,0.0,2.0,83,0.00,,,0.45,Wunderground v.1.15,2013-02-20 04:54:00,
2013-02-19 20:59:00,39.0,34.0,29.70,SW,221,0.0,3.0,82,0.00,,,0.45,Wunderground v.1.15,2013-02-20 04:59:00,
2013-02-19 21:00:00,39.0,34.0,29.70,SW,221,0.0,0.0,82,0.00,,,0.45,Wunderground v.1.15,2013-02-20 05:00:00,
2013-02-19 21:01:00,39.0,34.0,29.70,SW,222,0.0,3.0,82,0.00,,,0.00,Wunderground v.1.15,2013-02-20 05:01:00,
2013-02-19 21:06:00,38.8,33.8,29.70,SW,221,0.0,3.0,82,0.00,,,0.00,Wunderground v.1.15,2013-02-20 05:06:00,
2013-02-19 21:11:00,38.5,33.8,29.70,SW,221,0.0,0.0,83,0.00,,,0.00,Wunderground v.1.15,2013-02-20 05:11:00,
2013-02-19 21:16:00,38.3,33.9,29.70,SW,221,0.0,0.0,84,0.00,,,0.00,Wunderground v.1.15,2013-02-20 05:16:00,
2013-02-19 21:21:00,38.0,33.9,29.70,SW,221,0.0,0.0,85,0.00,,,0.00,Wunderground v.1.15,2013-02-20 05:21:00,
2013-02-19 21:27:00,37.9,33.8,29.71,SW,221,0.0,0.0,85,0.00,,,0.00,Wunderground v.1.15,2013-02-20 05:27:00,
2013-02-19 21:32:00,37.9,34.1,29.70,SW,221,0.0,0.0,86,0.00,,,0.00,Wunderground v.1.15,2013-02-20 05:32:00,
2013-02-19 21:37:00,38.0,34.2,29.71,SW,221,0.0,0.0,86,0.00,,,0.00,Wunderground v.1.15,2013-02-20 05:37:00,
2013-02-19 21:42:00,37.9,34.1,29.71,SW,221,0.0,0.0,86,0.00,,,0.00,Wunderground v.1.15,2013-02-20 05:42:00,
2013-02-19 21:47:00,38.0,34.5,29.71,SW,221,0.0,0.0,87,0.00,,,0.00,Wunderground v.1.15,2013-02-20 05:47:00,
2013-02-19 21:52:00,38.1,34.6,29.71,SW,221,0.0,0.0,87,0.00,,,0.00,Wunderground v.1.15,2013-02-20 05:52:00,
2013-02-19 21:57:00,38.2,34.7,29.71,SW,221,0.0,0.0,87,0.00,,,0.00,Wunderground v.1.15,2013-02-20 05:57:00,
2013-02-19 22:02:00,38.3,34.8,29.71,SW,219,0.0,0.0,87,0.00,,,0.00,Wunderground v.1.15,2013-02-20 06:02:00,
2013-02-19 22:08:00,38.5,35.0,29.72,SSW,213,0.0,1.0,87,0.00,,,0.00,Wunderground v.1.15,2013-02-20 06:08:00,
2013-02-19 22:12:00,38.4,34.6,29.72,SSW,212,1.0,1.0,86,0.00,,,0.00,Wunderground v.1.15,2013-02-20 06:12:00,
2013-02-19 22:17:00,38.4,34.6,29.72,SSW,213,0.0,1.0,86,0.00,,,0.00,Wunderground v.1.15,2013-02-20 06:17:00,
2013-02-19 22:22:00,38.2,34.4,29.72,SSW,212,0.0,0.0,86,0.00,,,0.00,Wunderground v.1.15,2013-02-20 06:22:00,
2013-02-19 22:28:00,38.1,34.3,29.72,SSW,213,0.0,0.0,86,0.00,,,0.00,Wunderground v.1.15,2013-02-20 06:28:00,
2013-02-19 22:33:00,38.0,34.2,29.72,SSW,212,0.0,0.0,86,0.00,,,0.00,Wunderground v.1.15,2013-02-20 06:33:00,
2013-02-19 22:38:00,37.9,34.1,29.72,SSW,212,0.0,1.0,86,0.00,,,0.00,Wunderground v.1.15,2013-02-20 06:38:00,
2013-02-19 22:43:00,37.7,34.2,29.72,SSW,213,0.0,0.0,87,0.00,,,0.00,Wunderground v.1.15,2013-02-20 06:43:00,
2013-02-19 22:48:00,37.7,34.2,29.72,SSW,213,0.0,0.0,87,0.00,,,0.00,Wunderground v.1.15,2013-02-20 06:48:00,
2013-02-19 22:53:00,37.7,34.2,29.72,SSW,213,0.0,0.0,87,0.00,,,0.00,Wunderground v.1.15,2013-02-20 06:53:00,
2013-02-19 22:58:00,37.8,34.3,29.72,SSW,212,0.0,0.0,87,0.00,,,0.00,Wunderground v.1.15,2013-02-20 06:58:00,
2013-02-19 23:03:00,37.8,34.3,29.72,SSW,213,0.0,0.0,87,0.00,,,0.00,Wunderground v.1.15,2013-02-20 07:03:00,
2013-02-19 23:08:00,37.8,34.3,29.73,SSW,213,0.0,0.0,87,0.00,,,0.00,Wunderground v.1.15,2013-02-20 07:08:00,
2013-02-19 23:13:00,37.9,34.4,29.73,SSW,212,0.0,0.0,87,0.00,,,0.00,Wunderground v.1.15,2013-02-20 07:13:00,
2013-02-19 23:18:00,38.1,34.6,29.73,SW,227,0.0,0.0,87,0.00,,,0.00,Wunderground v.1.15,2013-02-20 07:18:00,
2013-02-19 23:23:00,38.2,34.7,29.73,WSW,244,1.0,2.0,87,0.00,,,0.00,Wunderground v.1.15,2013-02-20 07:23:00,
2013-02-19 23:29:00,38.3,34.8,29.74,WSW,251,0.0,2.0,87,0.00,,,0.00,Wunderground v.1.15,2013-02-20 07:29:00,
2013-02-19 23:34:00,38.4,34.9,29.74,WSW,247,0.0,2.0,87,0.00,,,0.00,Wunderground v.1.15,2013-02-20 07:34:00,
2013-02-19 23:39:00,38.5,34.7,29.74,West,259,1.0,2.0,86,0.00,,,0.00,Wunderground v.1.15,2013-02-20 07:39:00,
2013-02-19 23:44:00,38.5,34.7,29.74,West,259,0.0,2.0,86,0.00,,,0.00,Wunderground v.1.15,2013-02-20 07:44:00,
2013-02-19 23:49:00,38.3,34.5,29.74,WSW,243,0.0,2.0,86,0.00,,,0.00,Wunderground v.1.15,2013-02-20 07:49:00,
2013-02-19 23:54:00,38.2,34.7,29.74,WSW,244,0.0,1.0,87,0.00,,,0.00,Wunderground v.1.15,2013-02-20 07:54:00,
2013-02-19 23:59:00,38.1,34.6,29.74,WSW,244,0.0,0.0,87,0.00,,,0.00,Wunderground v.1.15,2013-02-20 07:59:00,